createdAt,value
2023-05-16T00:01:48.289Z,9.09
2023-05-16T00:04:15.161Z,9.08
2023-05-16T00:06:41.927Z,9.07
2023-05-16T00:09:08.591Z,9.04
2023-05-16T00:11:35.253Z,9.05
2023-05-16T00:14:02.668Z,9.04
2023-05-16T00:16:30.373Z,9.04
2023-05-16T00:19:01.202Z,9.04
2023-05-16T00:21:28.255Z,8.96
2023-05-16T00:23:54.999Z,8.83
2023-05-16T00:26:22.332Z,8.85
2023-05-16T00:28:49.204Z,8.80
2023-05-16T00:31:16.023Z,8.69
2023-05-16T00:33:42.743Z,8.57
2023-05-16T00:36:09.674Z,8.49
2023-05-16T00:38:37.389Z,8.49
2023-05-16T00:41:04.565Z,8.52
2023-05-16T00:43:31.296Z,8.54
2023-05-16T00:46:01.190Z,8.57
2023-05-16T00:48:28.025Z,8.63
2023-05-16T00:50:54.787Z,8.67
2023-05-16T00:53:21.934Z,8.68
2023-05-16T00:55:48.746Z,8.71
2023-05-16T00:58:16.448Z,8.75
2023-05-16T01:00:43.192Z,8.74
2023-05-16T01:03:12.006Z,8.75
2023-05-16T01:05:38.871Z,8.75
2023-05-16T01:08:05.704Z,8.75
2023-05-16T01:11:12.771Z,8.76
2023-05-16T01:17:34.159Z,8.72
2023-05-16T01:20:06.977Z,8.71
2023-05-16T01:22:47.720Z,8.74
2023-05-16T01:25:48.129Z,8.77
2023-05-16T01:28:17.661Z,8.78
2023-05-16T01:30:45.038Z,8.82
2023-05-16T01:33:12.020Z,8.85
2023-05-16T01:35:54.483Z,8.87
2023-05-16T01:38:36.713Z,8.80
2023-05-16T01:41:21.933Z,8.73
2023-05-16T01:43:49.494Z,8.70
2023-05-16T01:46:25.466Z,8.69
2023-05-16T01:49:01.784Z,8.69
2023-05-16T01:51:33.415Z,8.68
2023-05-16T01:54:06.584Z,8.64
2023-05-16T01:56:34.044Z,8.66
2023-05-16T01:59:02.363Z,8.70
2023-05-16T02:01:30.619Z,8.77
2023-05-16T02:03:58.468Z,8.80
2023-05-16T02:06:26.043Z,8.82
2023-05-16T02:08:52.744Z,8.83
2023-05-16T02:11:19.407Z,8.77
2023-05-16T02:13:46.178Z,8.75
2023-05-16T02:16:12.881Z,8.77
2023-05-16T02:18:39.582Z,8.80
2023-05-16T02:21:06.316Z,8.74
2023-05-16T02:23:32.943Z,8.78
2023-05-16T02:25:59.606Z,8.82
2023-05-16T02:28:26.248Z,8.80
2023-05-16T02:30:57.683Z,8.82
2023-05-16T02:33:27.010Z,8.84
2023-05-16T02:35:54.370Z,8.82
2023-05-16T02:38:21.441Z,8.83
2023-05-16T02:40:48.695Z,8.83
2023-05-16T02:43:15.778Z,8.83
2023-05-16T02:45:42.734Z,8.85
2023-05-16T02:48:09.593Z,8.90
2023-05-16T02:50:37.699Z,8.90
2023-05-16T02:53:04.682Z,8.92
2023-05-16T02:55:31.438Z,8.96
2023-05-16T02:57:58.083Z,8.95
2023-05-16T03:00:24.776Z,8.97
2023-05-16T03:02:51.462Z,8.97
2023-05-16T03:05:18.558Z,8.92
2023-05-16T03:07:45.489Z,8.92
2023-05-16T03:10:12.280Z,8.93
2023-05-16T03:12:38.975Z,8.94
2023-05-16T03:15:06.377Z,8.97
2023-05-16T03:17:33.027Z,8.99
2023-05-16T03:19:59.968Z,8.99
2023-05-16T03:22:26.652Z,8.97
2023-05-16T03:24:53.349Z,9.00
2023-05-16T03:27:20.080Z,9.01
2023-05-16T03:29:46.710Z,9.01
2023-05-16T03:32:13.521Z,9.01
2023-05-16T03:34:40.293Z,9.04
2023-05-16T03:37:07.027Z,9.08
2023-05-16T03:39:33.711Z,9.10
2023-05-16T03:42:00.464Z,9.13
2023-05-16T03:44:27.065Z,9.11
2023-05-16T03:46:54.353Z,9.14
2023-05-16T03:49:23.893Z,9.15
2023-05-16T03:51:50.530Z,9.15
2023-05-16T03:54:17.493Z,9.16
2023-05-16T03:56:44.329Z,9.18
2023-05-16T03:59:10.957Z,9.20
2023-05-16T04:01:37.612Z,9.20
2023-05-16T04:04:04.577Z,9.22
2023-05-16T04:06:32.062Z,9.24
2023-05-16T04:08:58.743Z,9.26
2023-05-16T04:11:26.607Z,9.26
2023-05-16T04:13:54.283Z,9.24
2023-05-16T04:16:21.258Z,9.23
2023-05-16T04:18:48.033Z,9.27
2023-05-16T04:21:15.484Z,9.29
2023-05-16T04:23:42.178Z,9.28
2023-05-16T04:26:09.204Z,9.28
2023-05-16T04:28:36.091Z,9.28
2023-05-16T04:31:03.261Z,9.31
2023-05-16T04:33:30.056Z,9.30
2023-05-16T04:35:58.129Z,9.30
2023-05-16T04:38:24.875Z,9.30
2023-05-16T04:40:51.921Z,9.33
2023-05-16T04:43:19.225Z,9.33
2023-05-16T04:45:47.243Z,9.31
2023-05-16T04:48:13.836Z,9.37
2023-05-16T04:50:40.476Z,9.37
2023-05-16T04:53:07.272Z,9.37
2023-05-16T04:55:33.917Z,9.43
2023-05-16T04:58:00.989Z,9.46
2023-05-16T05:00:27.864Z,9.45
2023-05-16T05:02:54.781Z,9.48
2023-05-16T05:05:21.910Z,9.43
2023-05-16T05:07:48.723Z,9.41
2023-05-16T05:10:15.590Z,9.46
2023-05-16T05:12:42.247Z,9.42
2023-05-16T05:15:09.137Z,9.46
2023-05-16T05:17:36.102Z,9.49
2023-05-16T05:20:06.919Z,9.46
2023-05-16T05:22:33.837Z,9.52
2023-05-16T05:25:00.963Z,9.49
2023-05-16T05:27:27.831Z,9.48
2023-05-16T05:29:54.554Z,9.52
2023-05-16T05:32:21.191Z,9.52
2023-05-16T05:34:47.836Z,9.57
2023-05-16T05:37:14.650Z,9.60
2023-05-16T05:39:41.356Z,9.59
2023-05-16T05:42:08.113Z,9.66
2023-05-16T05:44:34.982Z,9.67
2023-05-16T05:47:01.635Z,9.68
2023-05-16T05:49:28.544Z,9.72
2023-05-16T05:51:55.453Z,9.75
2023-05-16T05:54:22.435Z,9.74
2023-05-16T05:56:49.116Z,9.77
2023-05-16T05:59:15.835Z,9.77
2023-05-16T06:01:44.227Z,9.80
2023-05-16T06:04:11.356Z,9.82
2023-05-16T06:06:38.452Z,9.84
2023-05-16T06:09:05.089Z,9.86
2023-05-16T06:11:32.015Z,9.86
2023-05-16T06:13:58.770Z,9.87
2023-05-16T06:16:26.459Z,9.86
2023-05-16T06:18:53.135Z,9.86
2023-05-16T06:21:19.828Z,9.88
2023-05-16T06:23:46.422Z,9.91
2023-05-16T06:26:13.085Z,9.94
2023-05-16T06:28:39.728Z,9.97
2023-05-16T06:31:06.403Z,9.96
2023-05-16T06:33:33.141Z,9.94
2023-05-16T06:36:00.585Z,9.97
2023-05-16T06:38:27.320Z,9.98
2023-05-16T06:40:53.991Z,10.01
2023-05-16T06:43:20.697Z,10.04
2023-05-16T06:45:47.461Z,10.03
2023-05-16T06:48:15.754Z,10.03
2023-05-16T06:50:42.521Z,10.03
2023-05-16T06:53:09.294Z,10.05
2023-05-16T06:55:36.060Z,10.06
2023-05-16T06:58:02.812Z,10.06
2023-05-16T07:00:29.651Z,10.07
2023-05-16T07:02:56.544Z,10.08
2023-05-16T07:05:23.344Z,10.12
2023-05-16T07:07:50.089Z,10.11
2023-05-16T07:10:16.853Z,10.10
2023-05-16T07:12:43.647Z,10.11
2023-05-16T07:15:11.031Z,10.11
2023-05-16T07:17:37.819Z,10.11
2023-05-16T07:20:05.617Z,10.11
2023-05-16T07:22:32.597Z,10.17
2023-05-16T07:25:01.424Z,10.14
2023-05-16T07:27:28.574Z,10.14
2023-05-16T07:29:55.255Z,10.11
2023-05-16T07:32:21.992Z,10.15
2023-05-16T07:34:48.738Z,10.12
2023-05-16T07:37:16.672Z,10.15
2023-05-16T07:39:43.343Z,10.15
2023-05-16T07:42:10.276Z,10.20
2023-05-16T07:44:37.020Z,10.22
2023-05-16T07:47:03.752Z,10.22
2023-05-16T07:49:30.501Z,10.27
2023-05-16T07:51:57.227Z,10.29
2023-05-16T07:54:23.856Z,10.35
2023-05-16T07:56:50.637Z,10.40
2023-05-16T07:59:17.373Z,10.44
2023-05-16T08:01:46.748Z,10.47
2023-05-16T08:04:13.508Z,10.47
2023-05-16T08:06:40.296Z,10.52
2023-05-16T08:09:07.067Z,10.61
2023-05-16T08:11:34.043Z,10.65
2023-05-16T08:14:00.866Z,10.68
2023-05-16T08:16:27.619Z,10.69
2023-05-16T08:18:54.426Z,10.72
2023-05-16T08:21:21.323Z,10.77
2023-05-16T08:23:48.104Z,10.87
2023-05-16T08:26:14.853Z,10.93
2023-05-16T08:28:41.661Z,10.95
2023-05-16T08:31:08.538Z,11.00
2023-05-16T08:33:35.894Z,11.01
2023-05-16T08:36:03.213Z,10.99
2023-05-16T08:38:30.164Z,11.01
2023-05-16T08:40:57.147Z,11.01
2023-05-16T08:43:24.209Z,11.04
2023-05-16T08:45:51.172Z,11.15
2023-05-16T08:48:23.320Z,11.00
2023-05-16T08:50:50.351Z,10.79
2023-05-16T08:53:22.647Z,10.73
2023-05-16T08:55:51.619Z,10.68
2023-05-16T08:58:19.433Z,10.68
2023-05-16T09:00:47.194Z,10.69
2023-05-16T09:03:14.346Z,10.72
2023-05-16T09:05:41.686Z,10.74
2023-05-16T09:08:08.567Z,10.80
2023-05-16T09:10:35.508Z,10.86
2023-05-16T09:13:02.414Z,10.94
2023-05-16T09:15:33.757Z,10.94
2023-05-16T09:18:02.429Z,11.00
2023-05-16T09:20:29.296Z,11.10
2023-05-16T09:22:58.536Z,11.29
2023-05-16T09:25:32.118Z,11.42
2023-05-16T09:28:02.440Z,11.45
2023-05-16T09:30:32.211Z,11.48
2023-05-16T09:32:59.524Z,11.49
2023-05-16T09:35:43.171Z,11.39
2023-05-16T09:38:18.073Z,11.45
2023-05-16T09:40:46.219Z,11.44
2023-05-16T09:43:17.388Z,11.54
2023-05-16T09:45:49.149Z,11.47
2023-05-16T09:48:17.367Z,11.47
2023-05-16T09:50:53.266Z,11.37
2023-05-16T09:53:33.625Z,11.33
2023-05-16T09:56:02.582Z,11.24
2023-05-16T09:58:34.977Z,11.21
2023-05-16T10:01:02.938Z,11.19
2023-05-16T10:03:30.410Z,11.15
2023-05-16T10:05:57.638Z,11.15
2023-05-16T10:08:26.357Z,11.11
2023-05-16T10:10:56.594Z,11.05
2023-05-16T10:13:29.143Z,11.07
2023-05-16T10:15:57.705Z,11.04
2023-05-16T10:18:30.460Z,11.05
2023-05-16T10:21:02.555Z,11.01
2023-05-16T10:23:30.625Z,10.94
2023-05-16T10:26:01.179Z,11.02
2023-05-16T10:28:29.507Z,11.08
2023-05-16T10:30:56.717Z,11.10
2023-05-16T10:33:23.672Z,11.19
2023-05-16T10:35:51.253Z,11.18
2023-05-16T10:38:19.433Z,11.20
2023-05-16T10:40:48.716Z,11.15
2023-05-16T10:43:24.862Z,11.15
2023-05-16T10:45:59.938Z,11.11
2023-05-16T10:48:35.268Z,11.08
2023-05-16T10:51:03.847Z,11.00
2023-05-16T10:53:33.392Z,11.04
2023-05-16T10:56:00.215Z,10.99
2023-05-16T10:58:39.122Z,10.97
2023-05-16T11:01:19.077Z,11.07
2023-05-16T11:03:58.333Z,11.13
2023-05-16T11:06:43.303Z,11.14
2023-05-16T11:09:16.138Z,11.10
2023-05-16T11:11:57.987Z,11.10
2023-05-16T11:14:45.375Z,11.09
2023-05-16T11:17:20.884Z,11.18
2023-05-16T11:19:52.850Z,11.18
2023-05-16T11:22:19.755Z,11.19
2023-05-16T11:24:52.398Z,11.23
2023-05-16T11:27:25.509Z,11.29
2023-05-16T11:29:53.651Z,11.23
2023-05-16T11:32:22.529Z,11.28
2023-05-16T11:34:51.276Z,11.33
2023-05-16T11:37:20.239Z,11.41
2023-05-16T11:39:47.696Z,11.34
2023-05-16T11:42:14.918Z,11.33
2023-05-16T11:44:41.854Z,11.29
2023-05-16T11:47:08.876Z,11.32
2023-05-16T11:49:36.213Z,11.26
2023-05-16T11:52:05.796Z,11.22
2023-05-16T11:54:34.693Z,11.12
2023-05-16T11:57:02.328Z,11.16
2023-05-16T11:59:29.431Z,11.19
2023-05-16T12:01:56.314Z,11.19
2023-05-16T12:04:23.674Z,11.09
2023-05-16T12:07:00.830Z,11.09
2023-05-16T12:09:27.796Z,11.08
2023-05-16T12:11:54.754Z,11.11
2023-05-16T12:14:22.522Z,11.11
2023-05-16T12:16:51.205Z,11.19
2023-05-16T12:19:18.570Z,11.27
2023-05-16T12:21:45.539Z,11.33
2023-05-16T12:24:15.867Z,11.39
2023-05-16T12:26:43.630Z,11.44
2023-05-16T12:29:11.739Z,11.55
2023-05-16T12:31:41.957Z,11.42
2023-05-16T12:34:21.536Z,11.39
2023-05-16T12:36:53.203Z,11.25
2023-05-16T12:39:20.614Z,11.26
2023-05-16T12:41:47.566Z,11.27
2023-05-16T12:44:19.822Z,11.22
2023-05-16T12:46:51.982Z,11.24
2023-05-16T12:49:22.988Z,11.26
2023-05-16T12:51:55.854Z,11.28
2023-05-16T12:54:23.323Z,11.41
2023-05-16T12:56:50.373Z,11.51
2023-05-16T12:59:17.519Z,11.62
2023-05-16T13:01:46.540Z,11.73
2023-05-16T13:04:18.508Z,11.78
2023-05-16T13:06:58.685Z,11.78
2023-05-16T13:09:31.169Z,11.72
2023-05-16T13:11:59.841Z,11.63
2023-05-16T13:14:27.198Z,11.58
2023-05-16T13:16:54.015Z,11.54
2023-05-16T13:19:23.255Z,11.45
2023-05-16T13:21:50.177Z,11.21
2023-05-16T13:24:17.016Z,11.26
2023-05-16T13:26:44.153Z,11.19
2023-05-16T13:29:12.432Z,11.17
2023-05-16T13:31:39.429Z,11.05
2023-05-16T13:34:07.039Z,11.01
2023-05-16T13:36:49.408Z,10.99
2023-05-16T13:39:20.553Z,10.95
2023-05-16T13:41:49.101Z,10.88
2023-05-16T13:44:16.508Z,10.92
2023-05-16T13:46:43.457Z,11.00
2023-05-16T13:49:10.258Z,10.95
2023-05-16T13:51:37.092Z,10.96
2023-05-16T13:54:04.004Z,11.04
2023-05-16T13:56:30.894Z,11.04
2023-05-16T13:59:02.134Z,11.09
2023-05-16T14:01:31.648Z,11.14
2023-05-16T14:03:58.737Z,11.16
2023-05-16T14:06:25.697Z,11.14
2023-05-16T14:08:52.498Z,11.05
2023-05-16T14:11:20.040Z,11.02
2023-05-16T14:13:46.936Z,11.03
2023-05-16T14:16:13.856Z,11.00
2023-05-16T14:18:40.786Z,10.97
2023-05-16T14:21:07.751Z,10.95
2023-05-16T14:23:34.795Z,10.89
2023-05-16T14:26:01.906Z,10.88
2023-05-16T14:28:29.032Z,10.83
2023-05-16T14:30:55.916Z,10.73
2023-05-16T14:33:22.892Z,10.66
2023-05-16T14:35:50.359Z,10.60
2023-05-16T14:38:17.196Z,10.58
2023-05-16T14:40:44.056Z,10.52
2023-05-16T14:43:11.433Z,10.49
2023-05-16T14:45:39.417Z,10.45
2023-05-16T14:48:08.538Z,10.41
2023-05-16T14:50:35.555Z,10.41
2023-05-16T14:53:02.338Z,10.38
2023-05-16T14:55:29.507Z,10.32
2023-05-16T14:58:00.058Z,10.30
2023-05-16T15:00:27.745Z,10.27
2023-05-16T15:02:54.778Z,10.22
2023-05-16T15:05:21.907Z,10.22
2023-05-16T15:07:48.876Z,10.18
2023-05-16T15:10:15.762Z,10.18
2023-05-16T15:12:43.603Z,10.13
2023-05-16T15:15:13.042Z,10.16
2023-05-16T15:17:42.134Z,10.12
2023-05-16T15:20:10.700Z,10.06
2023-05-16T15:22:39.088Z,10.02
2023-05-16T15:25:06.427Z,10.01
2023-05-16T15:27:33.316Z,9.95
2023-05-16T15:30:01.126Z,9.92
2023-05-16T15:32:27.993Z,9.94
2023-05-16T15:34:54.816Z,9.89
2023-05-16T15:37:21.995Z,9.87
2023-05-16T15:39:48.878Z,9.88
2023-05-16T15:42:15.856Z,9.82
2023-05-16T15:44:42.738Z,9.84
2023-05-16T15:47:10.420Z,9.80
2023-05-16T15:49:37.337Z,9.82
2023-05-16T15:52:05.116Z,9.82
2023-05-16T15:54:32.043Z,9.81
2023-05-16T15:56:58.971Z,9.83
2023-05-16T15:59:26.065Z,9.76
2023-05-16T16:01:53.047Z,9.74
2023-05-16T16:04:23.224Z,9.73
2023-05-16T16:06:50.617Z,9.76
2023-05-16T16:09:17.776Z,9.74
2023-05-16T16:11:44.656Z,9.74
2023-05-16T16:14:11.498Z,9.77
2023-05-16T16:16:40.515Z,9.76
2023-05-16T16:19:08.284Z,9.74
2023-05-16T16:21:36.084Z,9.73
2023-05-16T16:24:03.138Z,9.75
2023-05-16T16:26:31.895Z,9.74
2023-05-16T16:28:58.918Z,9.70
2023-05-16T16:31:25.814Z,9.72
2023-05-16T16:33:52.834Z,9.73
2023-05-16T16:36:19.846Z,9.74
2023-05-16T16:38:46.709Z,9.73
2023-05-16T16:41:15.459Z,9.74
2023-05-16T16:43:42.365Z,9.74
2023-05-16T16:46:09.428Z,9.76
2023-05-16T16:48:36.685Z,9.77
2023-05-16T16:51:03.697Z,9.75
2023-05-16T16:53:30.554Z,9.69
2023-05-16T16:55:57.384Z,9.68
2023-05-16T16:58:24.183Z,9.65
2023-05-16T17:00:51.591Z,9.64
2023-05-16T17:03:18.447Z,9.63
2023-05-16T17:05:45.283Z,9.61
2023-05-16T17:08:12.328Z,9.63
2023-05-16T17:10:39.570Z,9.63
2023-05-16T17:13:10.457Z,9.64
2023-05-16T17:15:38.015Z,9.64
2023-05-16T17:18:08.452Z,9.65
2023-05-16T17:20:36.320Z,9.63
2023-05-16T17:23:03.557Z,9.63
2023-05-16T17:25:30.611Z,9.58
2023-05-16T17:27:57.610Z,9.55
2023-05-16T17:30:24.386Z,9.54
2023-05-16T17:32:51.768Z,9.57
2023-05-16T17:35:18.672Z,9.57
2023-05-16T17:37:47.594Z,9.56
2023-05-16T17:40:17.146Z,9.57
2023-05-16T17:42:47.667Z,9.55
2023-05-16T17:45:16.288Z,9.56
2023-05-16T17:47:43.614Z,9.56
2023-05-16T17:50:11.032Z,9.56
2023-05-16T17:52:39.914Z,9.57
2023-05-16T17:55:10.770Z,9.52
2023-05-16T17:57:37.664Z,9.50
2023-05-16T18:00:05.816Z,9.47
2023-05-16T18:02:33.128Z,9.43
2023-05-16T18:04:59.924Z,9.43
2023-05-16T18:07:27.178Z,9.40
2023-05-16T18:09:54.676Z,9.36
2023-05-16T18:12:21.643Z,9.29
2023-05-16T18:14:48.526Z,9.25
2023-05-16T18:17:15.338Z,9.24
2023-05-16T18:19:42.223Z,9.28
2023-05-16T18:22:12.082Z,9.25
2023-05-16T18:24:39.905Z,9.20
2023-05-16T18:27:06.799Z,9.15
2023-05-16T18:29:33.644Z,9.08
2023-05-16T18:32:00.460Z,9.00
2023-05-16T18:34:27.341Z,8.95
2023-05-16T18:36:54.129Z,8.90
2023-05-16T18:39:21.376Z,8.83
2023-05-16T18:41:48.514Z,8.83
2023-05-16T18:44:18.533Z,8.85
2023-05-16T18:46:46.590Z,8.92
2023-05-16T18:49:13.949Z,8.99
2023-05-16T18:51:40.910Z,9.05
2023-05-16T18:54:07.853Z,9.09
2023-05-16T18:56:34.868Z,9.12
2023-05-16T18:59:01.793Z,9.12
2023-05-16T19:01:28.869Z,9.15
2023-05-16T19:03:56.086Z,9.14
2023-05-16T19:06:23.258Z,9.13
2023-05-16T19:08:50.081Z,9.15
2023-05-16T19:11:18.124Z,9.12
2023-05-16T19:13:45.927Z,9.13
2023-05-16T19:16:13.131Z,9.11
2023-05-16T19:18:40.246Z,9.10
2023-05-16T19:21:13.514Z,9.12
2023-05-16T19:23:40.682Z,9.12
2023-05-16T19:26:07.462Z,9.10
2023-05-16T19:28:34.841Z,9.07
2023-05-16T19:31:01.638Z,9.07
2023-05-16T19:33:28.397Z,9.08
2023-05-16T19:35:57.801Z,9.04
2023-05-16T19:38:25.913Z,9.06
2023-05-16T19:40:53.482Z,9.05
2023-05-16T19:43:20.234Z,9.05
2023-05-16T19:45:47.067Z,9.07
2023-05-16T19:48:13.946Z,9.04
2023-05-16T19:50:40.952Z,9.05
2023-05-16T19:53:07.677Z,9.04
2023-05-16T19:55:37.980Z,9.01
2023-05-16T19:58:05.195Z,9.02
2023-05-16T20:00:32.051Z,9.02
2023-05-16T20:02:58.983Z,8.96
2023-05-16T20:05:26.136Z,8.93
2023-05-16T20:07:54.613Z,8.95
2023-05-16T20:10:22.208Z,8.95
2023-05-16T20:12:49.134Z,8.93
2023-05-16T20:15:16.403Z,8.90
2023-05-16T20:17:43.324Z,8.90
2023-05-16T20:20:10.785Z,8.88
2023-05-16T20:22:41.680Z,8.90
2023-05-16T20:25:10.527Z,8.88
2023-05-16T20:27:37.800Z,8.86
2023-05-16T20:30:06.727Z,8.86
2023-05-16T20:32:34.184Z,8.86
2023-05-16T20:35:01.364Z,8.87
2023-05-16T20:37:28.182Z,8.86
2023-05-16T20:39:55.152Z,8.82
2023-05-16T20:42:22.239Z,8.80
2023-05-16T20:44:49.117Z,8.87
2023-05-16T20:47:17.178Z,8.80
2023-05-16T20:49:44.541Z,8.77
2023-05-16T20:52:11.407Z,8.75
2023-05-16T20:54:38.277Z,8.77
2023-05-16T20:57:05.629Z,8.77
2023-05-16T20:59:32.562Z,8.72
2023-05-16T21:02:00.136Z,8.70
2023-05-16T21:04:27.010Z,8.71
2023-05-16T21:06:53.891Z,8.64
2023-05-16T21:09:20.891Z,8.64
2023-05-16T21:11:47.701Z,8.64
2023-05-16T21:14:14.572Z,8.58
2023-05-16T21:16:41.865Z,8.64
2023-05-16T21:19:08.929Z,8.64
2023-05-16T21:21:35.988Z,8.64
2023-05-16T21:24:03.805Z,8.68
2023-05-16T21:26:30.952Z,8.61
2023-05-16T21:28:57.742Z,8.64
2023-05-16T21:31:24.601Z,8.65
2023-05-16T21:33:52.492Z,8.64
2023-05-16T21:36:20.211Z,8.65
2023-05-16T21:38:47.442Z,8.66
2023-05-16T21:41:14.692Z,8.65
2023-05-16T21:43:41.542Z,8.66
2023-05-16T21:46:08.380Z,8.64
2023-05-16T21:48:36.053Z,8.67
2023-05-16T21:51:03.824Z,8.67
2023-05-16T21:53:30.588Z,8.65
2023-05-16T21:55:57.347Z,8.66
2023-05-16T21:58:25.432Z,8.62
2023-05-16T22:00:52.298Z,8.63
2023-05-16T22:03:21.271Z,8.62
2023-05-16T22:05:48.544Z,8.64
2023-05-16T22:08:15.552Z,8.62
2023-05-16T22:10:42.790Z,8.59
2023-05-16T22:13:10.006Z,8.61
2023-05-16T22:15:36.804Z,8.60
2023-05-16T22:18:03.744Z,8.58
2023-05-16T22:20:30.669Z,8.61
2023-05-16T22:22:57.732Z,8.63
2023-05-16T22:25:24.658Z,8.65
2023-05-16T22:27:51.403Z,8.68
2023-05-16T22:30:18.529Z,8.68
2023-05-16T22:32:47.031Z,8.65
2023-05-16T22:35:14.390Z,8.64
2023-05-16T22:37:41.202Z,8.58
2023-05-16T22:40:09.112Z,8.61
2023-05-16T22:42:36.014Z,8.58
2023-05-16T22:45:03.976Z,8.57
2023-05-16T22:47:30.893Z,8.57
2023-05-16T22:49:57.726Z,8.55
2023-05-16T22:52:24.876Z,8.57
2023-05-16T22:54:51.712Z,8.58
2023-05-16T22:57:18.535Z,8.58
2023-05-16T22:59:45.344Z,8.59
2023-05-16T23:02:12.147Z,8.56
2023-05-16T23:04:39.040Z,8.58
2023-05-16T23:07:05.938Z,8.58
2023-05-16T23:09:32.710Z,8.56
2023-05-16T23:11:59.517Z,8.56
2023-05-16T23:14:26.507Z,8.53
2023-05-16T23:16:53.308Z,8.46
2023-05-16T23:19:20.297Z,8.47
2023-05-16T23:21:47.155Z,8.44
2023-05-16T23:24:13.953Z,8.44
2023-05-16T23:26:40.778Z,8.45
2023-05-16T23:29:08.196Z,8.46
2023-05-16T23:31:35.013Z,8.47
2023-05-16T23:34:02.073Z,8.49
2023-05-16T23:36:29.008Z,8.48
2023-05-16T23:38:55.836Z,8.46
2023-05-16T23:41:22.632Z,8.45
2023-05-16T23:43:49.402Z,8.42
2023-05-16T23:46:16.159Z,8.40
2023-05-16T23:48:43.017Z,8.40
2023-05-16T23:51:09.998Z,8.42
2023-05-16T23:53:36.857Z,8.44
2023-05-16T23:56:03.732Z,8.43
2023-05-16T23:58:30.697Z,8.45
